Time;durP1;ratioP1;P1;durP2;ratioP2;P2;SDS_P1;SDS_P2;PMS_P1;PMS_P2;Temp;Humidity;BMP_temperature;BMP_pressure;BME280_temperature;BME280_humidity;BME280_pressure;Samples;Min_cycle;Max_cycle;Signal;HPM_P1;HPM_P2
2024/04/01 00:04:40;;;;;;;39.30;6.90;;;;;;;17.11;45.04;97629.45;239017;180;137808;-58
2024/04/01 00:09:43;;;;;;;43.70;6.30;;;;;;;17.00;45.11;97637.26;239115;180;138100;-57
2024/04/01 00:14:46;;;;;;;37.00;6.90;;;;;;;16.89;45.32;97648.83;238980;180;153955;-57
2024/04/01 00:19:49;;;;;;;37.30;5.90;;;;;;;16.78;45.73;97653.13;238961;180;138591;-57
2024/04/01 00:24:52;;;;;;;32.70;6.50;;;;;;;16.64;45.86;97654.11;238940;169;137548;-55
2024/04/01 00:29:55;;;;;;;36.60;6.90;;;;;;;16.51;46.34;97648.57;238870;180;153537;-58
2024/04/01 00:34:58;;;;;;;38.40;6.20;;;;;;;16.42;46.40;97654.36;238997;180;138300;-57
2024/04/01 00:40:05;;;;;;;39.30;5.90;;;;;;;16.41;46.45;97648.55;239077;180;137101;-56
2024/04/01 00:45:09;;;;;;;31.90;6.00;;;;;;;16.49;46.32;97642.96;239066;180;153308;-57
2024/04/01 00:50:12;;;;;;;35.70;5.60;;;;;;;16.41;46.77;97643.31;239000;180;138533;-56
2024/04/01 00:55:15;;;;;;;35.50;6.00;;;;;;;16.33;47.01;97638.08;239191;180;137806;-56
2024/04/01 01:00:18;;;;;;;38.70;6.10;;;;;;;16.30;46.90;97633.04;239100;180;153665;-57
2024/04/01 01:05:21;;;;;;;45.20;6.70;;;;;;;16.26;47.13;97624.95;239044;180;138528;-57
2024/04/01 01:10:24;;;;;;;42.20;6.30;;;;;;;16.21;47.49;97623.80;238907;180;139698;-56
2024/04/01 01:15:28;;;;;;;48.60;6.10;;;;;;;16.17;47.61;97629.80;238993;180;152989;-56
2024/04/01 01:20:31;;;;;;;34.60;5.40;;;;;;;16.12;48.00;97635.19;239054;180;138563;-57
2024/04/01 01:25:37;;;;;;;41.80;6.20;;;;;;;16.07;48.09;97640.58;239030;180;138212;-55
2024/04/01 01:30:41;;;;;;;37.90;6.60;;;;;;;15.98;48.17;97640.42;239017;180;153155;-57
2024/04/01 01:35:44;;;;;;;49.90;5.80;;;;;;;15.91;48.74;97637.41;239017;180;137972;-55
2024/04/01 01:40:47;;;;;;;39.80;6.40;;;;;;;15.87;49.10;97640.05;239117;180;137523;-56
2024/04/01 01:45:50;;;;;;;36.60;6.80;;;;;;;15.73;49.23;97638.83;239056;180;153920;-55
2024/04/01 01:50:53;;;;;;;39.70;6.80;;;;;;;15.61;49.61;97643.66;238942;177;138427;-58
2024/04/01 01:55:56;;;;;;;36.70;7.40;;;;;;;15.50;50.13;97646.24;239050;174;138307;-58
2024/04/01 02:00:59;;;;;;;32.70;6.20;;;;;;;15.34;50.69;97641.08;239075;180;153168;-56
2024/04/01 02:06:02;;;;;;;36.70;5.50;;;;;;;15.22;51.00;97649.27;238848;173;137836;-57
2024/04/01 02:11:05;;;;;;;41.90;6.50;;;;;;;15.21;51.66;97653.19;239009;180;138777;-58
2024/04/01 02:16:10;;;;;;;42.50;6.40;;;;;;;15.18;52.10;97652.98;239069;172;154453;-55
2024/04/01 02:21:13;;;;;;;38.90;6.30;;;;;;;15.13;52.15;97649.70;239057;176;137998;-57
2024/04/01 02:26:16;;;;;;;30.90;6.10;;;;;;;15.07;52.39;97640.98;239113;180;137606;-58
2024/04/01 02:31:19;;;;;;;41.90;6.30;;;;;;;15.02;52.73;97646.38;238936;173;154123;-58
2024/04/01 02:36:22;;;;;;;33.80;6.70;;;;;;;14.96;52.49;97659.33;238947;180;138158;-58
2024/04/01 02:41:25;;;;;;;38.40;6.40;;;;;;;14.93;53.11;97652.51;239050;180;140602;-56
2024/04/01 02:46:28;;;;;;;34.10;7.50;;;;;;;14.87;53.50;97651.94;239005;180;153238;-57
2024/04/01 02:51:31;;;;;;;41.90;6.40;;;;;;;14.81;53.95;97647.73;238228;180;138649;-58
2024/04/01 02:56:34;;;;;;;42.50;7.70;;;;;;;14.80;54.11;97641.30;239048;180;140489;-58
2024/04/01 03:01:40;;;;;;;46.10;8.30;;;;;;;14.73;54.42;97632.20;239003;177;153838;-57
2024/04/01 03:06:43;;;;;;;33.80;7.20;;;;;;;14.68;54.55;97632.86;238867;180;137134;-58
2024/04/01 03:11:46;;;;;;;47.30;7.00;;;;;;;14.66;55.14;97639.86;239041;180;142578;-58
2024/04/01 03:16:51;;;;;;;35.40;5.90;;;;;;;14.61;54.92;97630.38;238986;180;154641;-58
2024/04/01 03:21:54;;;;;;;47.00;7.30;;;;;;;14.58;54.91;97617.42;238948;179;139389;-58
2024/04/01 03:26:56;;;;;;;40.60;6.20;;;;;;;14.57;54.87;97602.62;239093;180;137826;-57
2024/04/01 03:31:59;;;;;;;35.40;6.40;;;;;;;14.56;54.95;97609.48;239088;180;153743;-56
2024/04/01 03:37:03;;;;;;;42.00;6.80;;;;;;;14.52;55.20;97615.42;239112;180;138023;-57
2024/04/01 03:42:06;;;;;;;33.50;6.30;;;;;;;14.47;55.08;97616.23;239059;180;137186;-57
2024/04/01 03:47:10;;;;;;;49.30;7.20;;;;;;;14.38;54.70;97611.45;238983;180;152955;-58
2024/04/01 03:52:13;;;;;;;40.90;6.60;;;;;;;14.31;54.92;97604.73;239006;180;137638;-57
2024/04/01 03:57:16;;;;;;;45.10;6.70;;;;;;;14.36;55.20;97613.91;239038;180;137717;-56
2024/04/01 04:02:19;;;;;;;34.00;5.00;;;;;;;14.36;55.71;97624.74;239013;180;153640;-54
2024/04/01 04:07:22;;;;;;;40.00;9.40;;;;;;;14.36;56.26;97631.60;239018;180;139355;-54
2024/04/01 04:12:26;;;;;;;32.40;6.10;;;;;;;14.40;56.46;97627.98;239038;180;137175;-55
2024/04/01 04:17:30;;;;;;;47.30;6.70;;;;;;;14.38;56.61;97623.33;238851;180;153322;-56
2024/04/01 04:22:33;;;;;;;39.60;6.60;;;;;;;14.36;56.28;97636.09;239021;180;139199;-53
2024/04/01 04:27:36;;;;;;;335.10;164.20;;;;;;;14.40;56.63;97642.45;239183;180;139690;-54
2024/04/01 04:32:42;;;;;;;;;;;;;;;14.59;56.26;97637.33;239040;180;153943;-55
2024/04/01 04:37:45;;;;;;;39.30;10.50;;;;;;;14.61;56.47;97631.05;239090;174;137957;-54
2024/04/01 04:42:48;;;;;;;34.70;6.90;;;;;;;14.63;56.14;97637.69;239090;180;138709;-54
2024/04/01 04:47:52;;;;;;;32.60;6.40;;;;;;;14.61;56.40;97625.16;239085;180;152924;-53
2024/04/01 04:52:55;;;;;;;37.30;6.20;;;;;;;14.59;56.72;97621.59;239153;180;137553;-54
2024/04/01 04:57:58;;;;;;;37.90;6.10;;;;;;;14.56;56.33;97611.02;239101;180;137314;-52
2024/04/01 05:03:01;;;;;;;44.50;6.90;;;;;;;14.59;57.12;97596.29;238974;174;153855;-54
2024/04/01 05:08:04;;;;;;;202.40;146.80;;;;;;;14.58;57.06;97589.77;238819;180;140920;-52
2024/04/01 05:13:07;;;;;;;51.20;11.80;;;;;;;14.66;57.84;97575.83;239008;176;139248;-55
2024/04/01 05:18:10;;;;;;;35.30;6.80;;;;;;;14.87;57.15;97579.82;238984;180;153469;-54
2024/04/01 05:23:13;;;;;;;38.40;6.60;;;;;;;14.87;56.71;97576.23;238908;180;138100;-54
2024/04/01 05:28:16;;;;;;;40.30;6.60;;;;;;;14.95;57.18;97569.71;239099;180;137913;-54
2024/04/01 05:33:20;;;;;;;47.10;6.40;;;;;;;15.10;57.31;97572.98;238723;180;153185;-52
2024/04/01 05:38:23;;;;;;;45.00;6.20;;;;;;;15.27;57.69;97561.17;238988;180;139556;-53
2024/04/01 05:43:27;;;;;;;37.70;6.50;;;;;;;15.44;57.78;97544.40;238911;180;137887;-53
2024/04/01 05:48:30;;;;;;;52.10;8.20;;;;;;;15.66;57.33;97538.70;238991;180;153044;-54
2024/04/01 05:53:34;;;;;;;64.10;8.90;;;;;;;15.95;55.78;97528.91;238804;180;137329;-53
2024/04/01 05:58:37;;;;;;;69.20;9.40;;;;;;;16.33;54.42;97504.02;239115;180;137683;-53
2024/04/01 06:03:39;;;;;;;60.20;8.90;;;;;;;16.74;53.28;97500.66;239008;180;153987;-54
2024/04/01 06:08:42;;;;;;;57.20;8.50;;;;;;;17.13;51.95;97493.55;238967;180;137950;-55
2024/04/01 06:13:45;;;;;;;75.80;9.40;;;;;;;17.51;50.49;97475.46;239121;180;139246;-55
2024/04/01 06:18:49;;;;;;;70.40;9.90;;;;;;;17.87;49.25;97487.70;239104;172;152934;-52
2024/04/01 06:23:52;;;;;;;63.30;10.30;;;;;;;18.18;48.27;97500.80;238907;180;138438;-53
2024/04/01 06:28:55;;;;;;;59.00;9.80;;;;;;;18.41;47.57;97506.74;239073;180;137747;-55
2024/04/01 06:33:58;;;;;;;142.60;77.00;;;;;;;18.64;47.49;97504.61;239049;177;153222;-55
2024/04/01 06:39:03;;;;;;;70.20;11.00;;;;;;;18.84;46.83;97508.50;239005;180;138177;-55
2024/04/01 06:44:06;;;;;;;73.80;10.00;;;;;;;19.04;45.67;97519.58;238937;180;138314;-55
2024/04/01 06:49:09;;;;;;;58.60;10.30;;;;;;;19.22;44.99;97524.02;239054;178;153942;-54
2024/04/01 06:54:12;;;;;;;67.10;10.00;;;;;;;19.39;44.46;97520.33;239014;180;137417;-56
2024/04/01 06:59:15;;;;;;;73.00;9.90;;;;;;;19.54;44.25;97516.15;238997;180;138334;-54
2024/04/01 07:04:18;;;;;;;109.20;36.20;;;;;;;19.66;43.82;97493.46;239044;177;154539;-56
2024/04/01 07:09:21;;;;;;;56.90;10.00;;;;;;;19.78;43.61;97486.53;239089;180;137781;-59
2024/04/01 07:14:25;;;;;;;75.50;9.70;;;;;;;19.90;43.69;97478.02;238982;180;138121;-57
2024/04/01 07:19:28;;;;;;;72.30;9.20;;;;;;;20.02;43.50;97474.55;239101;180;153240;-55
2024/04/01 07:24:31;;;;;;;69.40;9.40;;;;;;;20.15;43.00;97466.27;239093;180;138026;-57
2024/04/01 07:29:34;;;;;;;62.10;9.10;;;;;;;20.31;42.95;97444.62;238875;169;138902;-56
2024/04/01 07:34:37;;;;;;;53.60;9.30;;;;;;;20.53;42.68;97444.30;239123;180;153625;-48
2024/04/01 07:39:40;;;;;;;64.80;8.80;;;;;;;20.76;41.98;97439.22;238947;180;139950;-49
2024/04/01 07:44:43;;;;;;;154.60;91.00;;;;;;;20.96;41.52;97434.80;239019;180;137842;-50
2024/04/01 07:49:46;;;;;;;56.40;9.50;;;;;;;21.17;41.32;97452.74;238989;180;153124;-55
2024/04/01 07:54:49;;;;;;;60.00;10.70;;;;;;;21.31;40.43;97456.52;239078;180;137986;-54
2024/04/01 07:59:52;;;;;;;68.90;9.10;;;;;;;21.39;40.16;97462.77;239059;180;137788;-56
2024/04/01 08:04:55;;;;;;;66.90;9.40;;;;;;;21.50;39.51;97450.99;238967;180;154545;-54
2024/04/01 08:10:03;;;;;;;73.00;10.50;;;;;;;21.60;39.63;97459.18;238539;177;138578;-58
2024/04/01 08:15:07;;;;;;;58.20;10.90;;;;;;;21.67;39.36;97456.45;239034;180;152891;-50
2024/04/01 08:20:10;;;;;;;55.60;9.20;;;;;;;21.81;39.71;97444.86;239115;180;153041;-51
2024/04/01 08:25:13;;;;;;;65.00;9.10;;;;;;;22.04;39.25;97436.51;239063;180;137798;-51
2024/04/01 08:30:16;;;;;;;57.20;8.60;;;;;;;22.23;38.87;97430.83;238990;180;138018;-52
2024/04/01 08:35:19;;;;;;;101.30;52.90;;;;;;;22.38;38.37;97416.18;239011;180;153458;-50
2024/04/01 08:40:22;;;;;;;96.50;50.10;;;;;;;22.53;38.47;97397.18;239149;180;138485;-49
2024/04/01 08:45:26;;;;;;;72.00;12.60;;;;;;;22.65;38.45;97373.42;239102;180;138090;-55
2024/04/01 08:50:35;;;;;;;75.60;10.50;;;;;;;22.79;38.12;97379.18;238903;180;154185;-53
2024/04/01 08:55:38;;;;;;;69.20;10.00;;;;;;;22.94;37.31;97364.45;238914;180;138037;-53
2024/04/01 09:00:42;;;;;;;65.00;9.90;;;;;;;23.09;36.87;97370.44;239085;174;139180;-51
2024/04/01 09:05:45;;;;;;;76.90;10.60;;;;;;;23.23;36.09;97363.23;239012;180;153774;-52
2024/04/01 09:10:48;;;;;;;63.20;10.80;;;;;;;23.28;35.36;97356.73;238813;180;137439;-48
2024/04/01 09:15:51;;;;;;;91.30;11.70;;;;;;;23.42;35.04;97363.17;239055;180;138099;-52
2024/04/01 09:20:57;;;;;;;76.60;11.20;;;;;;;23.61;34.63;97358.13;239098;180;153214;-52
2024/04/01 09:26:00;;;;;;;85.60;11.30;;;;;;;23.68;33.72;97357.85;239029;180;139627;-54
2024/04/01 09:31:04;;;;;;;201.70;109.60;;;;;;;23.72;33.73;97359.91;239030;180;140997;-55
2024/04/01 09:36:07;;;;;;;65.00;12.20;;;;;;;23.83;33.63;97350.09;238972;180;153028;-54
2024/04/01 09:41:10;;;;;;;78.80;12.60;;;;;;;23.93;33.00;97335.80;239060;180;139013;-54
2024/04/01 09:46:15;;;;;;;71.00;10.60;;;;;;;23.98;33.01;97325.09;239066;180;137196;-54
2024/04/01 09:51:22;;;;;;;59.10;9.40;;;;;;;24.06;33.10;97319.92;238988;180;154170;-50
2024/04/01 09:56:34;;;;;;;56.80;10.20;;;;;;;24.16;32.99;97310.02;239099;180;138047;-47
2024/04/01 10:01:58;;;;;;;142.90;73.30;;;;;;;24.26;32.55;97307.20;238943;180;139076;-51
2024/04/01 10:07:36;;;;;;;71.80;11.10;;;;;;;24.28;32.12;97303.97;238970;178;153973;-53
2024/04/01 10:12:58;;;;;;;294.50;213.20;;;;;;;24.39;32.21;97294.42;238979;180;137844;-58
2024/04/01 10:18:41;;;;;;;68.80;14.10;;;;;;;24.56;32.48;97289.52;239074;180;137985;-53
2024/04/01 10:24:12;;;;;;;68.70;11.40;;;;;;;24.81;32.16;97288.36;239036;180;153555;-54
2024/04/01 10:29:38;;;;;;;62.30;10.90;;;;;;;25.05;32.24;97288.10;238986;178;137858;-57
2024/04/01 10:35:18;;;;;;;67.20;9.40;;;;;;;25.22;31.32;97277.08;239082;180;138109;-56
2024/04/01 10:40:47;;;;;;;67.50;9.70;;;;;;;25.30;30.34;97280.48;239046;180;152923;-56
2024/04/01 10:45:58;;;;;;;63.30;9.40;;;;;;;25.36;30.82;97273.31;238918;180;138009;-56
2024/04/01 10:51:36;;;;;;;61.90;9.60;;;;;;;25.44;30.37;97273.77;239038;180;138080;-55
2024/04/01 10:57:16;;;;;;;54.20;8.80;;;;;;;25.51;30.04;97275.93;239091;180;153784;-55
2024/04/01 11:02:40;;;;;;;57.10;9.20;;;;;;;25.46;29.80;97263.42;239111;179;137878;-55
2024/04/01 11:07:58;;;;;;;65.80;9.20;;;;;;;25.40;30.07;97263.31;238789;180;137938;-52
2024/04/01 11:13:10;;;;;;;51.60;12.30;;;;;;;25.46;30.59;97247.54;238643;180;153995;-56
2024/04/01 11:18:36;;;;;;;55.70;9.30;;;;;;;25.43;30.36;97246.89;239047;180;137151;-46
2024/04/01 11:23:48;;;;;;;44.90;9.00;;;;;;;25.36;30.51;97239.02;239036;180;137740;-48
2024/04/01 11:28:54;;;;;;;50.70;8.50;;;;;;;25.32;30.34;97232.33;239024;180;152914;-47
2024/04/01 11:34:18;;;;;;;59.20;9.10;;;;;;;25.32;30.45;97228.73;239014;180;137608;-47
2024/04/01 11:39:23;;;;;;;57.70;8.60;;;;;;;25.40;30.65;97220.06;239009;180;137495;-49
2024/04/01 11:44:28;;;;;;;48.60;10.00;;;;;;;25.48;31.22;97214.10;239068;180;153730;-57
2024/04/01 11:49:44;;;;;;;160.10;91.50;;;;;;;25.50;31.19;97209.73;239050;180;138301;-47
2024/04/01 11:54:47;;;;;;;69.50;22.20;;;;;;;25.50;30.62;97200.84;239064;180;141252;-45
2024/04/01 11:59:51;;;;;;;45.60;10.00;;;;;;;25.50;30.92;97195.40;239013;180;153588;-45
2024/04/01 12:05:05;;;;;;;50.50;9.00;;;;;;;25.50;30.06;97192.88;239046;180;137677;-45
2024/04/01 12:10:08;;;;;;;47.60;8.90;;;;;;;25.53;30.54;97184.19;238942;180;137560;-48
2024/04/01 12:15:16;;;;;;;52.70;8.50;;;;;;;25.63;30.53;97184.85;238968;180;154280;-46
2024/04/01 12:20:22;;;;;;;107.50;67.90;;;;;;;25.67;30.65;97181.76;238928;180;138816;-46
2024/04/01 12:25:27;;;;;;;50.30;9.30;;;;;;;25.76;30.83;97184.88;238820;180;139360;-47
2024/04/01 12:30:36;;;;;;;70.20;32.00;;;;;;;25.84;30.36;97182.27;238543;173;153585;-47
2024/04/01 12:35:40;;;;;;;80.40;21.50;;;;;;;25.93;30.08;97180.61;238892;180;139844;-43
2024/04/01 12:40:44;;;;;;;50.60;10.00;;;;;;;26.00;30.30;97177.55;239037;180;138664;-43
2024/04/01 12:45:52;;;;;;;76.40;28.50;;;;;;;26.03;30.15;97175.86;239018;180;154643;-43
2024/04/01 12:50:57;;;;;;;52.80;11.30;;;;;;;26.05;29.84;97183.64;238959;180;139529;-42
2024/04/01 12:56:30;;;;;;;42.80;9.40;;;;;;;26.03;29.69;97177.77;239019;180;137720;-43
2024/04/01 13:01:51;;;;;;;51.40;9.40;;;;;;;26.01;29.56;97179.41;239093;180;154458;-46
2024/04/01 13:07:04;;;;;;;47.70;9.30;;;;;;;26.05;29.77;97175.20;239016;180;138262;-45
2024/04/01 13:12:48;;;;;;;42.50;8.00;;;;;;;26.11;28.49;97172.19;239130;180;138777;-44
2024/04/01 13:18:18;;;;;;;42.70;7.70;;;;;;;26.13;27.06;97169.55;239058;180;153188;-46
2024/04/01 13:23:26;;;;;;;48.40;7.40;;;;;;;26.19;27.05;97167.54;239039;180;137299;-46
2024/04/01 13:28:47;;;;;;;45.00;7.60;;;;;;;26.25;27.13;97168.02;239103;180;136845;-45
2024/04/01 13:34:29;;;;;;;132.90;66.30;;;;;;;26.27;27.22;97157.61;239077;180;153927;-41
2024/04/01 13:40:19;;;;;;;43.70;9.30;;;;;;;26.28;26.95;97155.58;239027;180;137378;-44
2024/04/01 13:45:43;;;;;;;42.40;8.10;;;;;;;26.29;26.73;97146.96;238483;183;137951;-48
2024/04/01 13:51:37;;;;;;;50.80;7.30;;;;;;;26.30;25.98;97142.28;238919;180;153355;-47
2024/04/01 13:57:02;;;;;;;49.30;7.30;;;;;;;26.35;26.04;97139.44;238866;180;138187;-44
2024/04/01 14:02:32;;;;;;;41.70;7.90;;;;;;;26.38;25.83;97138.79;239015;180;137242;-46
2024/04/01 14:07:58;;;;;;;43.20;8.30;;;;;;;26.42;26.23;97137.89;238927;180;153989;-42
2024/04/01 14:13:19;;;;;;;49.00;7.70;;;;;;;26.41;24.96;97136.67;238846;180;138065;-43
2024/04/01 14:18:42;;;;;;;68.80;9.90;;;;;;;26.38;24.44;97130.56;239118;180;138680;-46
2024/04/01 14:23:45;;;;;;;62.30;10.40;;;;;;;26.39;23.14;97121.26;239029;180;153056;-47
2024/04/01 14:28:48;;;;;;;60.90;17.70;;;;;;;26.44;23.21;97107.64;239010;180;137506;-42
2024/04/01 14:33:51;;;;;;;56.10;8.20;;;;;;;26.44;22.84;97096.52;239056;180;138938;-46
2024/04/01 14:38:55;;;;;;;58.20;8.50;;;;;;;26.45;23.32;97104.82;239048;180;153596;-45
2024/04/01 14:43:58;;;;;;;137.70;86.00;;;;;;;26.43;23.39;97112.10;238922;180;137253;-43
2024/04/01 14:49:02;;;;;;;49.60;9.80;;;;;;;26.39;23.61;97108.85;239077;180;139084;-45
2024/04/01 14:54:04;;;;;;;61.80;9.00;;;;;;;26.30;23.51;97108.68;238948;180;152927;-55
2024/04/01 14:59:09;;;;;;;64.40;10.50;;;;;;;26.16;24.08;97106.62;238978;180;137853;-55
2024/04/01 15:04:12;;;;;;;65.90;10.00;;;;;;;26.10;24.36;97112.70;239004;180;138304;-55
2024/04/01 15:09:16;;;;;;;63.70;10.80;;;;;;;26.02;24.47;97118.27;238910;179;153613;-56
2024/04/01 15:14:21;;;;;;;59.10;11.60;;;;;;;25.94;24.64;97123.30;238968;180;138396;-57
2024/04/01 15:19:26;;;;;;;52.60;9.80;;;;;;;25.90;24.82;97119.92;239030;180;137181;-57
2024/04/01 15:24:29;;;;;;;61.70;10.90;;;;;;;25.91;24.96;97121.58;239013;180;153677;-56
2024/04/01 15:29:32;;;;;;;63.60;10.30;;;;;;;25.93;25.17;97112.70;238975;180;139099;-56
2024/04/01 15:34:35;;;;;;;78.70;9.40;;;;;;;25.90;24.80;97101.90;239057;180;139785;-56
2024/04/01 15:39:41;;;;;;;62.30;10.90;;;;;;;25.87;24.76;97092.48;238966;180;153032;-57
2024/04/01 15:44:44;;;;;;;70.70;11.80;;;;;;;25.80;24.79;97092.11;239040;180;137276;-53
2024/04/01 15:49:48;;;;;;;68.30;11.20;;;;;;;25.73;24.85;97085.48;239046;180;138175;-53
2024/04/01 15:54:52;;;;;;;67.50;10.00;;;;;;;25.68;25.07;97088.65;239093;180;153867;-53
2024/04/01 15:59:57;;;;;;;;;;;;;;;25.65;24.91;97093.80;239007;180;139259;-52
2024/04/01 16:05:00;;;;;;;70.50;12.00;;;;;;;25.55;24.90;97099.78;239094;180;138045;-50
2024/04/01 16:10:03;;;;;;;65.50;11.30;;;;;;;25.43;24.90;97102.95;238901;180;152869;-50
2024/04/01 16:15:07;;;;;;;75.30;11.10;;;;;;;25.37;24.81;97105.10;239034;179;137413;-56
2024/04/01 16:20:14;;;;;;;53.60;10.50;;;;;;;25.32;25.06;97105.62;238955;180;138523;-56
2024/04/01 16:25:17;;;;;;;86.70;37.60;;;;;;;25.26;25.45;97107.73;239138;180;153735;-44
2024/04/01 16:30:29;;;;;;;74.50;12.80;;;;;;;25.23;25.54;97104.39;239031;180;138193;-44
2024/04/01 16:35:32;;;;;;;78.80;11.60;;;;;;;25.16;25.67;97106.15;239088;180;138161;-50
2024/04/01 16:40:35;;;;;;;68.00;10.60;;;;;;;25.08;25.81;97104.39;238940;180;153728;-49
2024/04/01 16:45:40;;;;;;;58.30;10.90;;;;;;;24.99;25.92;97102.09;239038;180;138281;-48
2024/04/01 16:50:47;;;;;;;70.00;11.00;;;;;;;24.93;26.14;97107.12;239035;180;138185;-51
2024/04/01 16:55:51;;;;;;;77.30;12.80;;;;;;;24.87;26.25;97103.70;238984;180;154038;-54
2024/04/01 17:00:54;;;;;;;65.30;12.40;;;;;;;24.81;26.42;97105.56;239017;180;138692;-54
2024/04/01 17:05:58;;;;;;;71.80;11.20;;;;;;;24.72;26.49;97110.14;238866;180;140296;-53
2024/04/01 17:11:01;;;;;;;69.30;11.90;;;;;;;24.65;26.59;97117.62;238898;172;153197;-54
2024/04/01 17:16:04;;;;;;;64.20;10.70;;;;;;;24.62;26.66;97125.85;239029;176;139732;-50
2024/04/01 17:21:07;;;;;;;72.50;13.30;;;;;;;24.58;26.74;97134.36;238981;180;138033;-53
2024/04/01 17:26:12;;;;;;;78.30;12.50;;;;;;;24.52;26.96;97132.90;238978;180;155394;-53
2024/04/01 17:31:15;;;;;;;77.70;12.00;;;;;;;24.46;26.87;97131.27;239002;180;139361;-52
2024/04/01 17:36:18;;;;;;;72.60;12.80;;;;;;;24.43;27.19;97124.50;238774;180;138197;-54
2024/04/01 17:41:21;;;;;;;90.00;12.30;;;;;;;24.43;27.19;97134.71;238995;176;153037;-51
2024/04/01 17:46:25;;;;;;;72.30;13.00;;;;;;;24.43;27.31;97145.59;238980;180;138163;-51
2024/04/01 17:51:29;;;;;;;61.10;12.40;;;;;;;24.42;27.49;97151.82;238888;180;138253;-53
2024/04/01 17:56:32;;;;;;;72.10;12.30;;;;;;;24.43;27.42;97156.30;238878;180;154080;-51
2024/04/01 18:01:35;;;;;;;63.00;12.00;;;;;;;24.42;27.45;97161.33;238947;180;139570;-51
2024/04/01 18:06:38;;;;;;;63.80;11.50;;;;;;;24.41;27.68;97165.64;238740;180;139633;-51
2024/04/01 18:11:42;;;;;;;66.90;12.20;;;;;;;24.38;27.92;97170.17;238902;180;153223;-51
2024/04/01 18:16:46;;;;;;;67.20;13.00;;;;;;;24.36;27.74;97176.11;239005;180;137642;-45
2024/04/01 18:21:50;;;;;;;285.50;196.20;;;;;;;24.37;28.01;97167.91;238853;180;142675;-49
2024/04/01 18:26:53;;;;;;;87.30;19.60;;;;;;;24.41;28.27;97167.94;238893;180;155119;-45
2024/04/01 18:31:58;;;;;;;75.60;19.90;;;;;;;24.43;28.49;97159.46;239000;179;139109;-44
2024/04/01 18:37:05;;;;;;;255.20;149.40;;;;;;;24.41;29.06;97150.95;238948;180;141387;-46
2024/04/01 18:42:23;;;;;;;87.40;24.50;;;;;;;24.28;30.33;97150.64;238766;180;153009;-42
2024/04/01 18:47:26;;;;;;;83.50;15.20;;;;;;;24.06;30.81;97142.79;238971;180;139965;-43
2024/04/01 18:52:29;;;;;;;77.40;14.40;;;;;;;23.88;30.76;97146.69;238995;180;138066;-47
2024/04/01 18:57:37;;;;;;;250.60;148.90;;;;;;;23.70;31.56;97143.65;239012;172;154625;-46
2024/04/01 19:02:41;;;;;;;66.50;18.10;;;;;;;23.51;32.81;97143.16;238991;180;138405;-50
2024/04/01 19:07:47;;;;;;;74.30;16.70;;;;;;;23.28;33.30;97144.84;239031;180;137843;-47
2024/04/01 19:12:51;;;;;;;80.50;15.90;;;;;;;23.17;32.61;97141.65;239082;180;154552;-45
2024/04/01 19:17:55;;;;;;;201.90;134.90;;;;;;;23.03;33.55;97150.77;238967;180;138941;-54
2024/04/01 19:22:58;;;;;;;80.40;15.80;;;;;;;22.92;34.69;97144.17;239026;176;139116;-54
2024/04/01 19:28:01;;;;;;;64.50;12.60;;;;;;;22.78;33.89;97143.24;238769;180;153716;-53
2024/04/01 19:33:04;;;;;;;64.50;13.20;;;;;;;22.74;33.11;97139.93;238930;180;140949;-54
2024/04/01 19:38:07;;;;;;;72.80;12.10;;;;;;;22.71;32.86;97131.24;238971;173;138104;-52
2024/04/01 19:43:11;;;;;;;67.70;12.20;;;;;;;22.65;32.83;97122.60;238990;180;154496;-53
2024/04/01 19:48:14;;;;;;;63.50;11.70;;;;;;;22.60;33.23;97121.55;238859;180;137363;-53
2024/04/01 19:53:18;;;;;;;80.50;12.30;;;;;;;22.51;33.37;97115.61;238973;180;137839;-54
2024/04/01 19:58:21;;;;;;;76.00;12.90;;;;;;;22.38;34.14;97110.23;238970;180;153992;-54
2024/04/01 20:03:25;;;;;;;76.80;14.10;;;;;;;22.24;34.74;97106.00;238962;179;142617;-54
2024/04/01 20:08:28;;;;;;;79.50;13.80;;;;;;;22.12;34.93;97101.91;238782;180;138576;-54
2024/04/01 20:13:31;;;;;;;64.40;12.60;;;;;;;22.02;35.03;97091.03;239088;180;153921;-51
2024/04/01 20:18:34;;;;;;;77.30;16.80;;;;;;;21.99;35.20;97088.42;239003;180;140666;-55
2024/04/01 20:23:37;;;;;;;70.10;13.90;;;;;;;21.99;35.14;97082.14;238981;180;138775;-53
2024/04/01 20:28:45;;;;;;;60.50;12.90;;;;;;;21.98;35.18;97077.17;239000;180;153178;-53
2024/04/01 20:33:50;;;;;;;74.80;13.10;;;;;;;21.97;35.40;97063.17;239001;180;138568;-55
2024/04/01 20:38:54;;;;;;;69.30;13.60;;;;;;;21.94;35.65;97058.10;238949;180;138315;-55
2024/04/01 20:43:59;;;;;;;71.50;13.50;;;;;;;21.90;35.93;97047.64;239065;180;153178;-54
2024/04/01 20:49:03;;;;;;;58.90;12.90;;;;;;;21.84;35.98;97041.20;239008;180;137850;-54
2024/04/01 20:54:25;;;;;;;75.50;13.30;;;;;;;21.82;35.90;97029.80;239023;180;138003;-54
2024/04/01 20:59:31;;;;;;;82.20;13.00;;;;;;;21.74;36.34;97028.00;238880;180;153649;-55
2024/04/01 21:04:34;;;;;;;77.60;13.90;;;;;;;21.57;36.78;97022.79;238959;179;137943;-54
2024/04/01 21:09:36;;;;;;;73.80;13.10;;;;;;;21.40;37.61;97023.38;239019;180;138420;-50
2024/04/01 21:14:39;;;;;;;81.50;14.00;;;;;;;21.26;38.39;97011.91;238894;180;154336;-53
2024/04/01 21:19:43;;;;;;;65.80;12.50;;;;;;;21.12;39.65;97001.09;238952;180;137315;-53
2024/04/01 21:24:46;;;;;;;73.70;13.90;;;;;;;20.96;39.96;96992.50;238859;180;138637;-52
2024/04/01 21:29:52;;;;;;;67.60;13.80;;;;;;;20.81;40.78;96987.39;239019;180;153931;-53
2024/04/01 21:34:55;;;;;;;74.60;13.00;;;;;;;20.65;40.69;96982.33;238898;180;137582;-50
2024/04/01 21:39:58;;;;;;;78.10;13.60;;;;;;;20.62;40.64;96978.79;238942;177;138856;-54
2024/04/01 21:45:01;;;;;;;59.50;13.80;;;;;;;20.52;40.93;96987.33;239040;180;153227;-54
2024/04/01 21:50:04;;;;;;;64.20;12.50;;;;;;;20.57;40.25;96990.86;238848;180;139005;-54
2024/04/01 21:55:07;;;;;;;58.40;13.50;;;;;;;20.75;39.70;96991.88;238985;180;138045;-54
2024/04/01 22:00:18;;;;;;;70.50;12.80;;;;;;;20.88;39.55;96981.83;239007;180;153991;-55
2024/04/01 22:05:21;;;;;;;66.80;12.80;;;;;;;20.98;39.13;97004.24;238858;180;138543;-53
2024/04/01 22:10:25;;;;;;;65.50;11.90;;;;;;;20.99;38.83;97037.98;238954;177;138306;-53
2024/04/01 22:15:28;;;;;;;63.70;12.20;;;;;;;21.00;38.79;97028.91;238916;180;153307;-54
2024/04/01 22:20:31;;;;;;;62.20;12.20;;;;;;;20.98;38.40;97030.19;238986;180;138173;-53
2024/04/01 22:25:34;;;;;;;55.30;11.00;;;;;;;20.93;38.45;97041.32;238831;181;137471;-52
2024/04/01 22:30:37;;;;;;;63.50;10.70;;;;;;;20.78;38.93;97055.81;239007;180;154477;-54
2024/04/01 22:35:40;;;;;;;56.50;10.50;;;;;;;20.59;40.35;97072.56;238968;180;139767;-53
2024/04/01 22:40:43;;;;;;;45.00;9.60;;;;;;;20.38;41.29;97076.91;238899;180;138257;-52
2024/04/01 22:45:46;;;;;;;46.70;8.80;;;;;;;20.20;42.49;97097.16;238934;180;153254;-53
2024/04/01 22:50:50;;;;;;;35.60;7.80;;;;;;;20.07;43.28;97117.64;238818;180;137942;-52
2024/04/01 22:55:54;;;;;;;27.90;5.40;;;;;;;20.01;43.80;97129.29;239014;178;138226;-53
2024/04/01 23:00:57;;;;;;;33.00;5.40;;;;;;;19.88;45.03;97137.77;238790;180;153909;-54
2024/04/01 23:06:00;;;;;;;28.50;5.20;;;;;;;19.70;45.82;97147.52;239000;180;138008;-54
2024/04/01 23:11:03;;;;;;;24.20;5.10;;;;;;;19.50;46.80;97139.77;239032;180;138383;-53
2024/04/01 23:16:12;;;;;;;24.60;4.20;;;;;;;19.33;47.04;97131.85;239006;180;154629;-52
2024/04/01 23:21:15;;;;;;;20.30;3.50;;;;;;;19.17;47.62;97135.06;238853;180;138594;-51